Currently 69°F in Temecula, California, USA
69°F
86°F / 56°F
4 mph SW
0.00"
Tuesday, September 17, 2019 8:46 PM PDT

Temecula, California Weather Summary
Last 36 Hours

Temperature Winds Hourly Humidity Dewpoint
Time Report Norm Report Norm Max Gusts Precip. Rpt. Norm Rpt. Norm Pressure
1Tue 08:46 PM  68.8°F  69°F  4 mph SW  2 mph  7 mph  0.00"  61%  70%  54°F  59°F  29.92"
Tue 08:00 PM  71.0°F  71°F  5 mph S  3 mph  13 mph  0.00"  57%  65%  54°F  58°F  29.90"
Tue 07:00 PM  74.1°F  75°F  4 mph S  4 mph  13 mph  0.00"  57%  56%  57°F  58°F  29.88"
Tue 06:00 PM  79.5°F  81°F  7 mph SW  6 mph  16 mph  0.00"  47%  46%  57°F  57°F  29.87"
Tue 05:00 PM  80.0°F  83°F  9 mph SW  8 mph  16 mph  0.00"  45%  41%  56°F  57°F  29.87"
Tue 04:00 PM  81.8°F  86°F  8 mph SW  8 mph  18 mph  0.00"  43%  38%  56°F  56°F  29.87"
Tue 03:00 PM  84.4°F  87°F  6 mph SW  8 mph  19 mph  0.00"  36%  36%  54°F  56°F  29.87"
Tue 02:00 PM  85.9°F  87°F  7 mph SW  8 mph  15 mph  0.00"  29%  36%  49°F  56°F  29.90"
2Tue 01:47 PM  86.0°F  87°F  8 mph SW  8 mph  15 mph  ----  31%  36%  51°F  56°F  29.92"
Tue 01:00 PM  84.4°F  85°F  6 mph SW  7 mph  12 mph  0.00"  30%  37%  49°F  56°F  29.94"
Tue 12:00 PM  81.4°F  83°F  7 mph SW  5 mph  15 mph  0.00"  37%  42%  52°F  56°F  29.96"
Tue 11:00 AM  79.3°F  77°F  5 mph SW  3 mph  10 mph  0.00"  41%  52%  53°F  58°F  29.97"
Tue 10:00 AM  70.9°F  71°F  3 mph W  2 mph  6 mph  0.00"  62%  65%  57°F  58°F  29.98"
Tue 09:00 AM  63.2°F  65°F  calm  1 mph  3 mph  0.00"  73%  77%  54°F  58°F  30.00"
Tue 08:00 AM  58.2°F  61°F  1 mph N  1 mph  6 mph  0.00"  85%  86%  54°F  57°F  30.00"
Tue 07:00 AM  56.2°F  60°F  calm  1 mph  none  0.00"  90%  87%  53°F  56°F  29.99"
3Tue 06:56 AM  56.2°F  60°F  calm  1 mph  none  ----  90%  87%  53°F  56°F  29.99"
Tue 06:00 AM  56.7°F  60°F  calm  1 mph  none  0.00"  90%  87%  54°F  56°F  29.96"
Tue 05:00 AM  57.5°F  61°F  calm  1 mph  none  0.00"  90%  86%  55°F  56°F  29.95"
Tue 04:00 AM  59.7°F  61°F  calm  1 mph  none  0.00"  92%  85%  57°F  57°F  29.93"
Tue 03:00 AM  60.9°F  62°F  calm  1 mph  none  0.00"  93%  84%  59°F  57°F  29.94"
Tue 02:00 AM  62.7°F  63°F  calm  1 mph  none  0.00"  94%  83%  61°F  58°F  29.95"
Tue 01:00 AM  64.1°F  64°F  calm  1 mph  7 mph  0.00"  91%  81%  61°F  58°F  29.94"
Tue 12:00 AM  65.1°F  65°F  4 mph S  1 mph  9 mph  0.00"  87%  80%  61°F  58°F  29.92"
Mon 11:00 PM  67.2°F  66°F  calm  1 mph  4 mph  0.00"  78%  78%  60°F  59°F  29.92"
Mon 10:00 PM  69.6°F  67°F  2 mph S  1 mph  11 mph  0.00"  63%  75%  56°F  59°F  29.91"
Mon 09:00 PM  72.4°F  69°F  5 mph SW  2 mph  12 mph  0.00"  38%  71%  45°F  59°F  29.90"
Mon 08:00 PM  73.2°F  71°F  6 mph SW  3 mph  14 mph  0.00"  37%  65%  44°F  59°F  29.89"
Mon 07:00 PM  75.2°F  75°F  6 mph SW  4 mph  10 mph  0.00"  41%  56%  49°F  58°F  29.87"
Mon 06:00 PM  82.5°F  81°F  6 mph SW  7 mph  13 mph  0.00"  31%  46%  48°F  58°F  29.86"
Mon 05:00 PM  82.9°F  84°F  6 mph SW  8 mph  15 mph  0.00"  34%  41%  51°F  57°F  29.85"
Mon 04:00 PM  85.5°F  86°F  7 mph SW  9 mph  17 mph  0.00"  29%  38%  48°F  57°F  29.85"
Mon 03:00 PM  86.8°F  87°F  8 mph SW  9 mph  15 mph  0.00"  22%  36%  43°F  56°F  29.84"
Mon 02:00 PM  88.7°F  87°F  8 mph SW  8 mph  21 mph  0.00"  26%  36%  48°F  56°F  29.87"
Mon 01:00 PM  87.1°F  86°F  8 mph SW  7 mph  18 mph  0.00"  29%  38%  50°F  56°F  29.90"
Mon 12:00 PM  85.8°F  83°F  6 mph SW  5 mph  17 mph  0.00"  36%  42%  55°F  57°F  29.91"
Mon 11:00 AM  84.1°F  78°F  11 mph SW  3 mph  19 mph  0.00"  35%  52%  53°F  58°F  29.93"
Mon 10:00 AM  76.4°F  71°F  2 mph W  2 mph  3 mph  0.00"  39%  65%  49°F  58°F  29.95"
Mon 09:00 AM  68.4°F  65°F  calm  1 mph  3 mph  0.00"  55%  78%  51°F  58°F  29.95"

  1. Current weather data. No green row appears if the current weather data is also the high or low for the current day.
  2. High temperature for the current day.
  3. Low temperature for the current day.

The Temecula weather pages are a service of WeatherCurrents. Temecula, California is located in the Temecula Valley, in southwestern Riverside County, along the Interstate 15 highway. The Temecula Valley's rolling hills are home to the Temecula wine country, vineyards, golf courses, a casino resort, and Old Town Temecula.
Copyright ©2019  WeatherCurrents. All rights reserved. - Submit questions and comments - Privacy Policy

This page automatically refreshes every 10 minutes.